Time;durP1;ratioP1;P1;durP2;ratioP2;P2;SDS_P1;SDS_P2;PMS_P1;PMS_P2;Temp;Humidity;BMP_temperature;BMP_pressure;BME280_temperature;BME280_humidity;BME280_pressure;Samples;Min_cycle;Max_cycle;Signal;HPM_P1;HPM_P2
2023/04/06 00:00:36;;;;;;;0.73;0.13;;;19.70;60.70;;;;;;5062367;28;20052;-60
2023/04/06 00:03:03;;;;;;;0.95;0.20;;;19.70;60.70;;;;;;5050240;28;20067;-60
2023/04/06 00:05:30;;;;;;;1.27;0.30;;;19.70;60.70;;;;;;5067117;28;20103;-60
2023/04/06 00:07:58;;;;;;;1.27;0.20;;;19.70;60.70;;;;;;5067852;28;20060;-60
2023/04/06 00:10:26;;;;;;;1.25;0.15;;;19.70;60.70;;;;;;5051243;28;20057;-61
2023/04/06 00:12:53;;;;;;;0.82;0.47;;;19.70;60.70;;;;;;5050730;28;20094;-60
2023/04/06 00:15:22;;;;;;;1.40;0.52;;;19.70;60.70;;;;;;5064119;28;20116;-60
2023/04/06 00:17:49;;;;;;;1.15;0.20;;;19.70;60.70;;;;;;5070633;28;20064;-60
2023/04/06 00:20:16;;;;;;;0.80;0.13;;;19.70;60.70;;;;;;5067592;28;20048;-60
2023/04/06 00:22:44;;;;;;;1.15;0.10;;;19.70;60.80;;;;;;5067395;28;20075;-60
2023/04/06 00:25:11;;;;;;;0.65;0.20;;;19.60;60.70;;;;;;5057483;28;20052;-61
2023/04/06 00:27:39;;;;;;;0.77;0.20;;;19.60;60.70;;;;;;5055107;28;20048;-60
2023/04/06 00:30:07;;;;;;;1.50;1.40;;;19.60;60.70;;;;;;5067120;28;20071;-60
2023/04/06 00:32:37;;;;;;;0.70;0.20;;;19.60;60.70;;;;;;5065565;28;20048;-60
2023/04/06 00:35:04;;;;;;;0.90;0.20;;;19.60;60.80;;;;;;5058650;28;20055;-60
2023/04/06 00:37:31;;;;;;;0.73;0.20;;;19.60;60.80;;;;;;5052468;28;20048;-60
2023/04/06 00:39:58;;;;;;;0.82;0.13;;;19.60;60.80;;;;;;5056295;28;20048;-60
2023/04/06 00:42:26;;;;;;;1.20;0.13;;;19.60;60.80;;;;;;5055074;28;20052;-60
2023/04/06 00:44:54;;;;;;;1.30;0.20;;;19.60;60.80;;;;;;5057034;28;20127;-60
2023/04/06 00:47:21;;;;;;;0.77;0.10;;;19.60;60.80;;;;;;5049071;28;20049;-60
2023/04/06 00:49:50;;;;;;;1.23;0.75;;;19.50;60.80;;;;;;5054288;28;20049;-60
2023/04/06 00:52:17;;;;;;;0.85;0.20;;;19.50;60.80;;;;;;5048709;28;20045;-60
2023/04/06 00:54:44;;;;;;;0.80;0.30;;;19.50;60.80;;;;;;5050190;28;20045;-60
2023/04/06 00:57:11;;;;;;;1.48;0.30;;;19.60;60.80;;;;;;5059417;28;20045;-60
2023/04/06 00:59:39;;;;;;;0.80;0.10;;;19.50;60.80;;;;;;5049518;28;20060;-60
2023/04/06 01:02:06;;;;;;;1.17;0.30;;;19.50;60.80;;;;;;5048931;28;20555;-60
2023/04/06 01:04:33;;;;;;;0.93;0.10;;;19.50;60.80;;;;;;5050337;28;20045;-60
2023/04/06 01:07:02;;;;;;;0.90;0.10;;;19.50;60.80;;;;;;5054636;28;20049;-60
2023/04/06 01:09:30;;;;;;;1.15;0.20;;;19.50;60.80;;;;;;5054804;28;20050;-60
2023/04/06 01:11:57;;;;;;;0.80;0.20;;;19.50;60.80;;;;;;5069101;28;20424;-60
2023/04/06 01:14:24;;;;;;;0.70;0.10;;;19.50;60.80;;;;;;5049060;28;20053;-60
2023/04/06 01:16:54;;;;;;;0.95;0.13;;;19.50;60.80;;;;;;5066629;28;20048;-60
2023/04/06 01:19:23;;;;;;;1.02;0.68;;;19.50;60.80;;;;;;5054455;28;20097;-60
2023/04/06 01:21:52;;;;;;;1.35;0.30;;;19.50;60.80;;;;;;5050614;28;20528;-60
2023/04/06 01:24:21;;;;;;;0.95;0.10;;;19.40;60.80;;;;;;5052111;28;20067;-60
2023/04/06 01:26:49;;;;;;;0.85;0.20;;;19.40;60.80;;;;;;5067519;28;20052;-60
2023/04/06 01:29:16;;;;;;;1.23;0.13;;;19.40;60.80;;;;;;5062746;28;20421;-61
2023/04/06 01:31:43;;;;;;;0.70;0.20;;;19.40;60.80;;;;;;5049294;28;20052;-60
2023/04/06 01:34:10;;;;;;;0.82;0.20;;;19.40;60.80;;;;;;5050047;28;20044;-60
2023/04/06 01:36:37;;;;;;;1.00;0.20;;;19.40;60.80;;;;;;5049285;28;20041;-60
2023/04/06 01:39:04;;;;;;;0.80;0.20;;;19.30;60.80;;;;;;5057094;28;20044;-60
2023/04/06 01:41:33;;;;;;;0.80;0.20;;;19.40;60.80;;;;;;5055169;28;20560;-60
2023/04/06 01:44:00;;;;;;;1.70;0.60;;;19.30;60.80;;;;;;5047878;28;20060;-60
2023/04/06 01:46:27;;;;;;;1.00;0.20;;;19.40;60.80;;;;;;5048050;28;20494;-60
2023/04/06 01:48:54;;;;;;;0.45;0.10;;;19.30;60.80;;;;;;5048391;28;20053;-60
2023/04/06 01:51:21;;;;;;;1.48;0.43;;;19.30;60.80;;;;;;5049184;28;20143;-60
2023/04/06 01:53:49;;;;;;;0.90;0.45;;;19.30;60.80;;;;;;5064517;28;20052;-60
2023/04/06 01:56:16;;;;;;;1.17;0.10;;;19.30;60.70;;;;;;5057739;28;20061;-60
2023/04/06 01:58:44;;;;;;;1.25;0.55;;;19.30;60.80;;;;;;5048888;28;20045;-60
2023/04/06 02:01:11;;;;;;;0.80;0.20;;;19.30;60.70;;;;;;5048831;28;20517;-60
2023/04/06 02:03:38;;;;;;;0.70;0.15;;;19.30;60.80;;;;;;5053727;28;20040;-60
2023/04/06 02:06:05;;;;;;;0.88;0.10;;;19.30;60.80;;;;;;5048445;28;20044;-60
2023/04/06 02:08:32;;;;;;;1.00;0.20;;;19.30;60.80;;;;;;5061167;28;20063;-60
2023/04/06 02:10:59;;;;;;;1.00;0.50;;;19.30;60.80;;;;;;5048933;28;20490;-60
2023/04/06 02:13:26;;;;;;;0.85;0.10;;;19.30;60.80;;;;;;5049123;28;20049;-60
2023/04/06 02:15:55;;;;;;;0.77;0.20;;;19.30;60.80;;;;;;5047619;28;20478;-60
2023/04/06 02:18:22;;;;;;;0.70;0.15;;;19.20;60.70;;;;;;5048924;28;20126;-60
2023/04/06 02:20:49;;;;;;;0.73;0.10;;;19.20;60.70;;;;;;5047122;28;20052;-60
2023/04/06 02:23:16;;;;;;;0.75;0.20;;;19.20;60.70;;;;;;5049813;28;20045;-60
2023/04/06 02:25:43;;;;;;;1.02;0.10;;;19.20;60.80;;;;;;5048398;28;20056;-60
2023/04/06 02:28:10;;;;;;;0.93;0.30;;;19.20;60.70;;;;;;5048934;28;20547;-60
2023/04/06 02:30:37;;;;;;;1.13;0.20;;;19.20;60.80;;;;;;5048656;28;20568;-60
2023/04/06 02:33:05;;;;;;;1.63;0.20;;;19.20;60.80;;;;;;5048646;28;20070;-60
2023/04/06 02:35:33;;;;;;;0.90;0.10;;;19.20;61.40;;;;;;5048817;28;20052;-60
2023/04/06 02:38:00;;;;;;;0.70;0.20;;;19.20;60.80;;;;;;5048532;28;20056;-60
2023/04/06 02:40:27;;;;;;;1.17;0.50;;;19.20;60.80;;;;;;5052685;28;20040;-61
2023/04/06 02:42:54;;;;;;;1.05;0.65;;;19.10;60.80;;;;;;5057971;28;20045;-60
2023/04/06 02:45:21;;;;;;;1.30;0.55;;;19.10;60.80;;;;;;5052685;28;20041;-60
2023/04/06 02:47:48;;;;;;;0.90;0.10;;;19.10;60.80;;;;;;5054893;28;20138;-60
2023/04/06 02:50:16;;;;;;;1.45;0.50;;;19.10;60.80;;;;;;5060961;28;20055;-60
2023/04/06 02:52:44;;;;;;;0.90;0.28;;;19.10;60.80;;;;;;5060292;28;20061;-60
2023/04/06 02:55:10;;;;;;;1.10;0.80;;;19.10;61.10;;;;;;5055723;28;20053;-60
2023/04/06 02:57:38;;;;;;;0.88;0.20;;;19.10;60.70;;;;;;5060466;28;20045;-60
2023/04/06 03:00:06;;;;;;;0.88;0.60;;;19.10;60.70;;;;;;5068656;28;20045;-60
2023/04/06 03:02:33;;;;;;;0.85;0.13;;;19.10;60.70;;;;;;5070011;28;20821;-60
2023/04/06 03:05:00;;;;;;;1.00;0.50;;;19.10;60.70;;;;;;5055479;28;20056;-60
2023/04/06 03:07:29;;;;;;;1.13;0.68;;;19.10;60.80;;;;;;5063338;28;20523;-60
2023/04/06 03:09:56;;;;;;;0.70;0.10;;;19.10;60.70;;;;;;5058108;28;20140;-60
2023/04/06 03:12:23;;;;;;;0.63;0.10;;;19.10;60.70;;;;;;5058977;28;20407;-60
2023/04/06 03:14:50;;;;;;;0.95;0.40;;;19.10;60.80;;;;;;5052346;28;20045;-60
2023/04/06 03:17:17;;;;;;;1.30;0.70;;;19.10;60.80;;;;;;5069377;28;20051;-60
2023/04/06 03:19:44;;;;;;;0.70;0.22;;;19.10;60.80;;;;;;5069945;28;20052;-60
2023/04/06 03:22:11;;;;;;;0.75;0.13;;;19.10;60.80;;;;;;5056662;28;20386;-60
2023/04/06 03:24:39;;;;;;;1.48;0.60;;;19.00;60.70;;;;;;5067977;28;20052;-60
2023/04/06 03:27:06;;;;;;;1.10;0.57;;;19.00;60.70;;;;;;5051463;28;20763;-60
2023/04/06 03:29:33;;;;;;;1.17;0.57;;;19.00;60.70;;;;;;5051828;28;20045;-61
2023/04/06 03:32:00;;;;;;;0.95;0.20;;;19.00;60.80;;;;;;5067073;28;20056;-60
2023/04/06 03:34:27;;;;;;;0.80;0.13;;;19.00;60.80;;;;;;5058813;28;20493;-60
2023/04/06 03:36:54;;;;;;;1.10;0.50;;;19.00;60.70;;;;;;5053806;28;20059;-60
2023/04/06 03:39:21;;;;;;;1.08;0.57;;;19.00;60.70;;;;;;5060563;28;20520;-60
2023/04/06 03:41:50;;;;;;;0.90;0.10;;;19.00;60.70;;;;;;5049305;28;20157;-60
2023/04/06 03:44:17;;;;;;;1.08;0.17;;;19.00;60.70;;;;;;5054837;28;20549;-60
2023/04/06 03:46:44;;;;;;;1.48;0.20;;;19.00;60.70;;;;;;5052163;28;20444;-60
2023/04/06 03:49:11;;;;;;;1.38;0.50;;;19.00;60.80;;;;;;5058326;28;20049;-60
2023/04/06 03:51:38;;;;;;;1.10;0.70;;;19.00;60.80;;;;;;5061876;28;20135;-60
2023/04/06 03:54:06;;;;;;;1.10;0.40;;;18.90;60.70;;;;;;5054013;28;20044;-60
2023/04/06 03:56:33;;;;;;;1.42;0.52;;;18.90;60.70;;;;;;5051021;28;20045;-60
2023/04/06 03:59:02;;;;;;;0.90;0.60;;;18.90;60.70;;;;;;5057058;28;20053;-60
2023/04/06 04:01:29;;;;;;;0.82;0.30;;;18.90;60.70;;;;;;5058977;28;20088;-61
2023/04/06 04:03:56;;;;;;;0.98;0.30;;;18.90;60.60;;;;;;5056196;28;20072;-60
2023/04/06 04:06:23;;;;;;;1.17;0.60;;;18.90;60.70;;;;;;5055440;28;20052;-60
2023/04/06 04:08:50;;;;;;;1.00;0.70;;;18.90;60.70;;;;;;5056343;28;20067;-60
2023/04/06 04:11:17;;;;;;;1.10;0.50;;;18.90;60.70;;;;;;5055092;28;20214;-60
2023/04/06 04:13:44;;;;;;;0.73;0.10;;;18.80;60.60;;;;;;5057165;28;20309;-60
2023/04/06 04:16:13;;;;;;;0.73;0.10;;;18.90;60.70;;;;;;5061355;28;20064;-60
2023/04/06 04:18:40;;;;;;;0.70;0.10;;;18.90;60.70;;;;;;5059853;28;20437;-60
2023/04/06 04:21:07;;;;;;;1.60;0.60;;;18.90;60.70;;;;;;5056849;28;20045;-60
2023/04/06 04:23:34;;;;;;;1.05;0.20;;;18.90;60.70;;;;;;5055612;28;20053;-60
2023/04/06 04:26:01;;;;;;;1.55;0.20;;;18.90;60.70;;;;;;5065880;28;20060;-60
2023/04/06 04:28:28;;;;;;;0.77;0.10;;;18.90;60.60;;;;;;5060511;28;20047;-60
2023/04/06 04:30:55;;;;;;;0.90;0.60;;;18.90;60.60;;;;;;5059945;28;20059;-60
2023/04/06 04:33:24;;;;;;;0.55;0.10;;;18.90;60.60;;;;;;5062932;28;20128;-60
2023/04/06 04:35:51;;;;;;;0.70;0.10;;;19.00;60.60;;;;;;5054608;28;20403;-60
2023/04/06 04:38:18;;;;;;;0.90;0.50;;;19.00;60.50;;;;;;5050639;28;20051;-60
2023/04/06 04:40:45;;;;;;;0.80;0.10;;;19.00;60.40;;;;;;5056729;28;20049;-60
2023/04/06 04:43:12;;;;;;;0.60;0.10;;;19.10;60.40;;;;;;5055799;28;20130;-60
2023/04/06 04:45:39;;;;;;;0.60;0.10;;;19.10;60.40;;;;;;5065249;28;20055;-60
2023/04/06 04:48:07;;;;;;;0.90;0.15;;;19.20;60.30;;;;;;5048714;28;20053;-60
2023/04/06 04:50:36;;;;;;;0.90;0.10;;;19.20;60.20;;;;;;5060347;28;20115;-60
2023/04/06 04:53:05;;;;;;;0.90;0.32;;;19.30;60.20;;;;;;5053363;28;20048;-60
2023/04/06 04:55:32;;;;;;;0.77;0.10;;;19.30;60.10;;;;;;5060999;28;20056;-61
2023/04/06 04:57:59;;;;;;;0.77;0.10;;;19.40;60.00;;;;;;5078639;28;20052;-60
2023/04/06 05:00:26;;;;;;;1.38;0.20;;;19.50;60.00;;;;;;5059760;28;20056;-60
2023/04/06 05:02:53;;;;;;;0.60;0.10;;;19.50;59.90;;;;;;5057764;28;20106;-60
2023/04/06 05:05:20;;;;;;;0.90;0.50;;;19.60;59.90;;;;;;5053975;28;20596;-60
2023/04/06 05:07:49;;;;;;;0.98;0.50;;;19.60;59.70;;;;;;5063196;28;20049;-60
2023/04/06 05:10:16;;;;;;;1.00;0.50;;;19.60;59.70;;;;;;5048677;28;20131;-60
2023/04/06 05:12:43;;;;;;;0.77;0.20;;;19.70;59.70;;;;;;5052429;28;20063;-60
2023/04/06 05:15:11;;;;;;;0.80;0.13;;;19.70;59.60;;;;;;5055537;28;20055;-60
2023/04/06 05:17:38;;;;;;;0.88;0.10;;;19.70;59.60;;;;;;5062980;28;20057;-60
2023/04/06 05:20:06;;;;;;;0.70;0.10;;;19.70;59.60;;;;;;5064606;28;20065;-60
2023/04/06 05:22:33;;;;;;;0.90;0.40;;;19.70;59.60;;;;;;5052086;28;20044;-60
2023/04/06 05:25:02;;;;;;;0.80;0.15;;;19.70;59.60;;;;;;5059269;28;20044;-60
2023/04/06 05:27:29;;;;;;;1.00;0.20;;;19.70;59.50;;;;;;5063750;28;20041;-60
2023/04/06 05:29:56;;;;;;;1.27;0.17;;;19.70;59.50;;;;;;5062316;28;20066;-60
2023/04/06 05:32:24;;;;;;;1.23;0.57;;;19.70;59.50;;;;;;5051923;28;20060;-60
2023/04/06 05:34:51;;;;;;;1.25;0.47;;;19.70;59.60;;;;;;5068891;28;20552;-61
2023/04/06 05:37:18;;;;;;;0.93;0.40;;;19.70;59.50;;;;;;5060532;28;20056;-60
2023/04/06 05:39:45;;;;;;;0.93;0.45;;;19.70;59.60;;;;;;5048175;28;20057;-62
2023/04/06 05:42:15;;;;;;;0.75;0.30;;;19.60;59.50;;;;;;5063529;28;20052;-61
2023/04/06 05:44:42;;;;;;;0.70;0.10;;;19.60;59.60;;;;;;5057680;28;20055;-61
2023/04/06 05:47:09;;;;;;;1.42;0.75;;;19.60;59.60;;;;;;5053587;28;20044;-60
2023/04/06 05:49:36;;;;;;;0.90;0.40;;;19.50;59.70;;;;;;5054757;28;20106;-61
2023/04/06 05:52:04;;;;;;;1.25;0.73;;;19.60;59.80;;;;;;5049351;28;20064;-61
2023/04/06 05:54:31;;;;;;;1.00;0.60;;;19.60;59.80;;;;;;5061649;28;20055;-61
2023/04/06 05:56:58;;;;;;;1.02;0.68;;;19.80;59.40;;;;;;5058403;28;20045;-60
2023/04/06 05:59:26;;;;;;;1.08;0.50;;;19.90;59.10;;;;;;5045457;28;20053;-60
2023/04/06 06:01:53;;;;;;;1.77;0.80;;;19.90;59.10;;;;;;5052352;28;20111;-60
2023/04/06 06:04:20;;;;;;;1.15;0.50;;;19.90;59.10;;;;;;5051932;28;20053;-60
2023/04/06 06:06:47;;;;;;;0.73;0.10;;;19.90;59.10;;;;;;5054874;28;20496;-61
2023/04/06 06:09:14;;;;;;;0.95;0.47;;;19.90;59.00;;;;;;5054416;28;20053;-61
2023/04/06 06:11:41;;;;;;;0.90;0.43;;;20.00;59.00;;;;;;5058634;28;20504;-60
2023/04/06 06:14:08;;;;;;;1.10;0.60;;;20.10;58.80;;;;;;5069610;28;20148;-60
2023/04/06 06:16:37;;;;;;;0.50;0.10;;;20.00;58.80;;;;;;5050646;28;20131;-60
2023/04/06 06:19:04;;;;;;;1.20;0.65;;;20.10;58.80;;;;;;5063294;28;20087;-61
2023/04/06 06:21:31;;;;;;;0.85;0.40;;;20.10;58.80;;;;;;5051438;28;20128;-61
2023/04/06 06:23:58;;;;;;;1.10;0.50;;;20.10;58.70;;;;;;5060654;28;20057;-60
2023/04/06 06:26:25;;;;;;;0.52;0.10;;;20.10;58.80;;;;;;5051451;28;20060;-60
2023/04/06 06:28:53;;;;;;;3.30;0.60;;;20.10;58.80;;;;;;5058096;28;20060;-60
2023/04/06 06:31:22;;;;;;;1.02;0.40;;;20.10;58.80;;;;;;5068683;28;20060;-61
2023/04/06 06:33:51;;;;;;;0.65;0.10;;;20.10;59.60;;;;;;5059136;28;20056;-61
2023/04/06 06:36:18;;;;;;;0.85;0.40;;;20.10;58.90;;;;;;5054518;28;20058;-61
2023/04/06 06:38:45;;;;;;;2.55;0.65;;;20.20;58.90;;;;;;5058355;28;20059;-62
2023/04/06 06:41:13;;;;;;;0.93;0.20;;;20.20;59.00;;;;;;5056438;28;20390;-61
2023/04/06 06:43:40;;;;;;;0.90;0.55;;;20.20;59.00;;;;;;5053954;28;20064;-60
2023/04/06 06:46:07;;;;;;;2.63;0.47;;;20.20;59.00;;;;;;5059178;28;20052;-60
2023/04/06 06:48:34;;;;;;;2.22;0.70;;;20.20;59.00;;;;;;5054353;28;20049;-61
2023/04/06 06:51:02;;;;;;;1.02;0.38;;;20.30;59.00;;;;;;5059741;28;20056;-61
2023/04/06 06:53:29;;;;;;;1.17;0.70;;;20.30;59.00;;;;;;5052222;28;20045;-61
2023/04/06 06:55:57;;;;;;;1.73;0.68;;;20.30;58.90;;;;;;5051042;28;20506;-61
2023/04/06 06:58:24;;;;;;;1.13;0.50;;;20.30;58.90;;;;;;5059877;28;20072;-61
2023/04/06 07:00:51;;;;;;;1.77;0.20;;;20.20;58.80;;;;;;5046259;28;20493;-60
2023/04/06 07:03:18;;;;;;;1.02;0.45;;;20.20;59.50;;;;;;5052360;28;20073;-60
2023/04/06 07:05:53;;;;;;;1.13;0.90;;;20.20;58.80;;;;;;5053020;28;20056;-61
2023/04/06 07:08:21;;;;;;;0.77;0.15;;;20.20;58.80;;;;;;5051491;28;20049;-60
2023/04/06 07:10:48;;;;;;;1.27;0.82;;;20.20;58.90;;;;;;5052185;28;20049;-62
2023/04/06 07:13:18;;;;;;;1.35;0.40;;;20.10;58.90;;;;;;5060148;28;20053;-61
2023/04/06 07:15:45;;;;;;;1.48;0.20;;;20.10;58.90;;;;;;5055538;28;20102;-61
2023/04/06 07:18:13;;;;;;;0.95;0.20;;;20.10;59.00;;;;;;5060380;28;20473;-61
2023/04/06 07:20:40;;;;;;;1.00;0.50;;;20.00;59.00;;;;;;5051672;28;20497;-61
2023/04/06 07:23:10;;;;;;;1.20;0.13;;;20.00;59.10;;;;;;5061059;28;20084;-60
2023/04/06 07:25:38;;;;;;;1.75;0.30;;;20.00;59.10;;;;;;5057188;28;20052;-60
2023/04/06 07:28:06;;;;;;;0.90;0.40;;;20.00;59.10;;;;;;5061270;28;20475;-61
2023/04/06 07:30:33;;;;;;;0.98;0.45;;;20.00;59.10;;;;;;5061549;28;20132;-60
2023/04/06 07:33:00;;;;;;;1.00;0.10;;;20.00;59.10;;;;;;5051775;28;20049;-61
2023/04/06 07:35:29;;;;;;;1.20;0.43;;;20.00;59.10;;;;;;5060689;28;20087;-62
2023/04/06 07:37:57;;;;;;;1.10;0.65;;;20.00;59.10;;;;;;5055082;28;20044;-61
2023/04/06 07:40:25;;;;;;;0.80;0.40;;;20.00;59.20;;;;;;5050378;28;20141;-60
2023/04/06 07:42:54;;;;;;;0.93;0.47;;;19.90;59.20;;;;;;5057614;28;20052;-60
2023/04/06 07:45:21;;;;;;;1.17;0.55;;;20.00;59.20;;;;;;5048955;28;20057;-61
2023/04/06 07:47:49;;;;;;;0.93;0.43;;;20.00;59.20;;;;;;5061355;28;20065;-61
2023/04/06 07:50:17;;;;;;;1.10;0.50;;;20.00;59.30;;;;;;5064248;28;20074;-61
2023/04/06 07:52:44;;;;;;;0.93;0.47;;;20.00;59.20;;;;;;5058166;28;20053;-61
2023/04/06 07:55:11;;;;;;;0.88;0.40;;;19.90;59.20;;;;;;5059824;28;20055;-60
2023/04/06 07:57:38;;;;;;;1.20;0.50;;;20.00;59.30;;;;;;5065826;28;20045;-61
2023/04/06 08:00:09;;;;;;;1.25;0.77;;;20.00;59.30;;;;;;5054974;28;20076;-60
2023/04/06 08:02:36;;;;;;;2.22;1.00;;;19.90;59.20;;;;;;5059470;28;20048;-61
2023/04/06 08:05:03;;;;;;;0.85;0.43;;;20.00;59.30;;;;;;5056063;28;20048;-60
2023/04/06 08:07:30;;;;;;;0.95;0.50;;;20.00;59.30;;;;;;5063971;28;20045;-60
2023/04/06 08:09:57;;;;;;;1.05;0.30;;;20.00;59.30;;;;;;5059808;28;20616;-61
2023/04/06 08:12:24;;;;;;;1.27;0.60;;;20.00;59.30;;;;;;5047569;28;20056;-61
2023/04/06 08:14:51;;;;;;;1.10;0.30;;;20.00;59.40;;;;;;5052465;28;20063;-61
2023/04/06 08:17:19;;;;;;;2.15;0.63;;;20.00;59.30;;;;;;5049087;28;20049;-62
2023/04/06 08:19:47;;;;;;;1.15;0.47;;;20.00;59.30;;;;;;5055048;28;20323;-61
2023/04/06 08:22:14;;;;;;;1.60;0.68;;;20.00;59.30;;;;;;5052766;28;20049;-60
2023/04/06 08:24:41;;;;;;;0.73;0.20;;;20.00;59.30;;;;;;5054303;28;20053;-61
2023/04/06 08:27:08;;;;;;;1.00;0.40;;;20.00;59.30;;;;;;5047806;28;20221;-61
2023/04/06 08:29:35;;;;;;;0.95;0.10;;;20.00;59.40;;;;;;5051934;28;20056;-61
2023/04/06 08:32:04;;;;;;;1.00;0.10;;;20.00;59.30;;;;;;5049842;28;20136;-61
2023/04/06 08:34:33;;;;;;;1.17;0.13;;;20.00;59.40;;;;;;5047011;28;20115;-61
2023/04/06 08:37:00;;;;;;;0.98;0.20;;;20.00;59.40;;;;;;5051965;28;20045;-61
2023/04/06 08:39:28;;;;;;;1.65;0.73;;;20.00;59.40;;;;;;5048205;28;20070;-61
2023/04/06 08:41:59;;;;;;;1.30;0.68;;;20.00;59.40;;;;;;5050393;28;20055;-61
2023/04/06 08:44:27;;;;;;;0.90;0.40;;;20.00;59.40;;;;;;5049225;28;20112;-61
2023/04/06 08:46:55;;;;;;;0.98;0.45;;;20.00;59.40;;;;;;5051623;28;20040;-60
2023/04/06 08:49:23;;;;;;;0.90;0.50;;;20.00;59.40;;;;;;5052027;28;20055;-61
2023/04/06 08:51:52;;;;;;;1.55;0.55;;;20.00;59.40;;;;;;5045588;28;21266;-61
2023/04/06 08:54:19;;;;;;;;;;;20.00;59.50;;;;;;5054088;28;20075;-61
2023/04/06 08:56:48;;;;;;;1.13;0.20;;;20.00;59.50;;;;;;5056241;28;20312;-61
2023/04/06 08:59:16;;;;;;;1.13;0.40;;;20.00;59.40;;;;;;5059009;28;20056;-61
2023/04/06 09:01:45;;;;;;;1.08;0.20;;;20.00;59.50;;;;;;5055860;28;20501;-61
2023/04/06 09:04:13;;;;;;;1.00;0.50;;;20.00;59.50;;;;;;5048197;28;20048;-61
2023/04/06 09:06:40;;;;;;;1.00;0.20;;;20.10;59.50;;;;;;5064987;28;20048;-61
2023/04/06 09:09:09;;;;;;;1.00;0.20;;;20.00;59.50;;;;;;5056114;28;20102;-61
2023/04/06 09:11:47;;;;;;;1.00;0.52;;;20.10;59.60;;;;;;5055844;28;20126;-61
2023/04/06 09:14:16;;;;;;;0.90;0.20;;;20.10;59.60;;;;;;5054864;28;20049;-61
2023/04/06 09:16:45;;;;;;;2.25;0.82;;;20.10;59.50;;;;;;5054990;28;20072;-61
2023/04/06 09:19:13;;;;;;;1.85;0.47;;;20.10;59.60;;;;;;5060813;28;20123;-61
2023/04/06 09:21:40;;;;;;;0.80;0.20;;;20.10;59.60;;;;;;5057173;28;20052;-61
2023/04/06 09:24:09;;;;;;;0.70;0.10;;;20.10;59.60;;;;;;5064293;28;20048;-61
2023/04/06 09:26:47;;;;;;;1.40;0.63;;;20.10;59.60;;;;;;5061333;28;20048;-61
2023/04/06 09:29:26;;;;;;;0.57;0.10;;;20.10;59.70;;;;;;5049387;28;20057;-65
2023/04/06 09:31:53;;;;;;;0.95;0.20;;;20.10;59.70;;;;;;5051425;28;20052;-63
2023/04/06 09:34:23;;;;;;;0.90;0.10;;;20.10;59.70;;;;;;5049378;28;20060;-62
2023/04/06 09:36:51;;;;;;;0.90;0.20;;;20.10;59.70;;;;;;5059056;28;20067;-63
2023/04/06 09:39:23;;;;;;;3.05;0.85;;;20.20;59.80;;;;;;5059200;28;20052;-62
2023/04/06 09:41:52;;;;;;;0.90;0.20;;;20.20;59.90;;;;;;5049003;28;20045;-63
2023/04/06 09:44:19;;;;;;;2.72;0.77;;;20.20;59.90;;;;;;5052437;28;20051;-62
2023/04/06 09:46:48;;;;;;;1.67;0.52;;;20.20;59.90;;;;;;5055215;28;20041;-62
2023/04/06 09:49:16;;;;;;;0.90;0.60;;;20.20;60.00;;;;;;5053354;28;20048;-62
2023/04/06 09:51:47;;;;;;;1.05;0.70;;;20.20;60.00;;;;;;5054870;28;20507;-66
2023/04/06 09:54:19;;;;;;;0.65;0.10;;;20.30;60.00;;;;;;5045036;28;20130;-64
2023/04/06 09:56:51;;;;;;;1.10;0.10;;;20.30;60.10;;;;;;5064835;28;20063;-64
2023/04/06 09:59:25;;;;;;;1.00;0.50;;;20.30;60.00;;;;;;5052953;28;20054;-65
2023/04/06 10:01:54;;;;;;;1.92;0.50;;;20.30;60.10;;;;;;5055708;28;20565;-65
2023/04/06 10:04:31;;;;;;;1.30;0.52;;;20.30;60.10;;;;;;5053204;28;20051;-64
2023/04/06 10:06:59;;;;;;;0.90;0.47;;;20.30;60.10;;;;;;5055834;28;20549;-65
2023/04/06 10:09:35;;;;;;;1.00;0.20;;;20.30;60.10;;;;;;5052439;28;20041;-64
2023/04/06 10:12:04;;;;;;;1.38;0.50;;;20.40;60.20;;;;;;5056547;28;20049;-66
2023/04/06 10:14:33;;;;;;;4.80;0.50;;;20.40;60.20;;;;;;5064461;28;20154;-63
2023/04/06 10:17:02;;;;;;;0.80;0.13;;;20.40;60.10;;;;;;5061298;28;20386;-63
2023/04/06 10:19:35;;;;;;;1.45;0.38;;;20.40;60.10;;;;;;5059948;28;20061;-64
2023/04/06 10:22:06;;;;;;;1.05;0.60;;;20.50;60.20;;;;;;5058887;28;20044;-67
2023/04/06 10:24:33;;;;;;;1.73;0.63;;;20.50;60.20;;;;;;5059844;28;20052;-64
2023/04/06 10:27:03;;;;;;;0.90;0.20;;;20.50;60.20;;;;;;5066146;28;20075;-66
2023/04/06 10:29:44;;;;;;;1.33;0.65;;;20.50;60.20;;;;;;5065822;28;20055;-66
2023/04/06 10:32:11;;;;;;;2.45;0.80;;;20.60;60.40;;;;;;5055202;28;20551;-63
2023/04/06 10:34:38;;;;;;;1.33;0.60;;;20.60;60.30;;;;;;5045125;28;20050;-61
2023/04/06 10:37:15;;;;;;;1.10;0.47;;;20.60;60.20;;;;;;5048461;28;20824;-63
2023/04/06 10:39:54;;;;;;;1.85;0.73;;;20.60;60.30;;;;;;5053985;28;20064;-62
2023/04/06 10:42:37;;;;;;;2.10;1.00;;;20.70;60.40;;;;;;5047705;28;20045;-61
2023/04/06 10:45:07;;;;;;;1.02;0.57;;;20.70;60.40;;;;;;5049687;28;20060;-63
2023/04/06 10:47:40;;;;;;;1.48;0.68;;;20.70;60.40;;;;;;5058025;28;20053;-62
2023/04/06 10:50:08;;;;;;;2.20;0.55;;;20.70;60.40;;;;;;5045843;28;20055;-61
2023/04/06 10:52:35;;;;;;;1.00;0.43;;;20.70;60.40;;;;;;5054706;28;20524;-61
2023/04/06 10:55:03;;;;;;;4.28;0.80;;;20.70;60.40;;;;;;5047187;28;20049;-61
2023/04/06 10:57:32;;;;;;;1.23;0.20;;;20.70;60.50;;;;;;5049824;28;20048;-62
2023/04/06 10:59:59;;;;;;;;;;;20.70;60.50;;;;;;5054605;28;20084;-64
2023/04/06 11:02:27;;;;;;;2.30;0.65;;;20.70;60.60;;;;;;5054443;28;19925;-63
2023/04/06 11:04:58;;;;;;;1.13;0.20;;;20.70;60.40;;;;;;5052306;28;20045;-64
2023/04/06 11:07:26;;;;;;;1.50;0.50;;;20.80;60.60;;;;;;5052198;28;20569;-68
2023/04/06 11:09:54;;;;;;;2.35;0.80;;;20.80;60.60;;;;;;5060701;28;20056;-67
2023/04/06 11:12:25;;;;;;;0.98;0.70;;;20.80;60.60;;;;;;5055391;28;20057;-68
2023/04/06 11:15:03;;;;;;;0.90;0.30;;;20.80;60.70;;;;;;5047668;28;20075;-66
2023/04/06 11:17:31;;;;;;;1.00;0.40;;;20.80;60.70;;;;;;5061180;28;20056;-61
2023/04/06 11:19:58;;;;;;;0.70;0.30;;;20.80;60.70;;;;;;5053768;28;20056;-61
2023/04/06 11:22:26;;;;;;;1.20;0.22;;;20.80;60.80;;;;;;5056205;28;20088;-62
2023/04/06 11:24:53;;;;;;;1.27;1.15;;;20.80;60.80;;;;;;5061465;28;20055;-60
2023/04/06 11:27:21;;;;;;;1.55;0.55;;;20.80;60.80;;;;;;5053961;28;20057;-65
2023/04/06 11:29:49;;;;;;;1.38;0.52;;;20.80;60.80;;;;;;5050088;28;20056;-65
2023/04/06 11:32:27;;;;;;;0.90;0.20;;;20.80;60.80;;;;;;5049214;28;20056;-66
2023/04/06 11:34:54;;;;;;;1.08;0.52;;;20.80;60.80;;;;;;5052812;28;20059;-64
2023/04/06 11:37:21;;;;;;;1.15;0.38;;;20.80;60.80;;;;;;5048325;28;20056;-65
2023/04/06 11:39:50;;;;;;;1.15;0.20;;;20.80;60.80;;;;;;5047800;28;20048;-65
2023/04/06 11:42:24;;;;;;;1.00;0.20;;;20.80;60.80;;;;;;5053727;28;20939;-64
2023/04/06 11:44:54;;;;;;;0.75;0.20;;;20.80;60.90;;;;;;5055621;28;20059;-65
2023/04/06 11:47:22;;;;;;;;;;;20.80;60.90;;;;;;5057563;28;20127;-64
2023/04/06 11:49:50;;;;;;;;;;;20.80;60.90;;;;;;5050307;28;20003;-64
2023/04/06 11:52:19;;;;;;;1.33;0.30;;;20.80;60.90;;;;;;5051637;28;20371;-65
2023/04/06 11:54:46;;;;;;;1.15;0.20;;;20.80;60.80;;;;;;5055234;28;20049;-64
2023/04/06 11:57:14;;;;;;;1.00;0.50;;;20.80;60.80;;;;;;5061886;28;20165;-64
2023/04/06 11:59:41;;;;;;;0.63;0.20;;;20.80;60.80;;;;;;5044951;28;20053;-65
2023/04/06 12:02:09;;;;;;;1.38;0.88;;;20.80;60.90;;;;;;5060473;28;20485;-64
2023/04/06 12:04:36;;;;;;;2.83;0.77;;;20.80;60.90;;;;;;5056612;28;20048;-64
2023/04/06 12:07:04;;;;;;;1.02;0.70;;;20.80;60.90;;;;;;5048416;28;20045;-65
2023/04/06 12:09:32;;;;;;;1.42;0.60;;;20.80;61.00;;;;;;5053663;28;20052;-64
2023/04/06 12:11:59;;;;;;;1.45;0.75;;;20.80;61.00;;;;;;5050378;28;20044;-65
2023/04/06 12:14:26;;;;;;;0.95;0.10;;;20.80;61.00;;;;;;5052327;28;20413;-65
2023/04/06 12:16:53;;;;;;;1.38;0.73;;;20.80;60.90;;;;;;5046571;28;20074;-66
2023/04/06 12:19:20;;;;;;;1.10;0.60;;;20.80;60.90;;;;;;5058246;28;20052;-65
2023/04/06 12:21:47;;;;;;;0.82;0.10;;;20.90;61.00;;;;;;5055750;28;20456;-64
2023/04/06 12:24:16;;;;;;;1.05;0.20;;;20.90;61.00;;;;;;5052330;28;20124;-65
2023/04/06 12:26:43;;;;;;;1.10;0.55;;;20.90;61.00;;;;;;5051672;28;21046;-64
2023/04/06 12:29:10;;;;;;;1.13;0.65;;;20.90;60.90;;;;;;5046256;28;20787;-65
2023/04/06 12:31:40;;;;;;;1.05;0.52;;;20.90;60.90;;;;;;5061835;28;20076;-64
2023/04/06 12:34:07;;;;;;;;;;;21.00;60.90;;;;;;5045879;28;20890;-65
2023/04/06 12:36:34;;;;;;;1.10;0.40;;;21.00;60.90;;;;;;5053100;28;19920;-64
2023/04/06 12:39:02;;;;;;;1.63;0.75;;;21.00;60.90;;;;;;5050672;28;20053;-64
2023/04/06 12:41:31;;;;;;;1.20;0.60;;;21.00;60.80;;;;;;5048529;28;20070;-65
2023/04/06 12:43:59;;;;;;;1.00;0.20;;;21.00;60.80;;;;;;5055645;28;20056;-64
2023/04/06 12:46:26;;;;;;;0.93;0.50;;;21.00;60.80;;;;;;5058577;28;20076;-64
2023/04/06 12:48:54;;;;;;;1.00;0.20;;;21.00;60.80;;;;;;5054789;28;20560;-64
2023/04/06 12:51:22;;;;;;;1.10;0.75;;;21.10;60.80;;;;;;5053397;28;20048;-64